Time;durP1;ratioP1;P1;durP2;ratioP2;P2;SDS_P1;SDS_P2;PMS_P1;PMS_P2;Temp;Humidity;BMP_temperature;BMP_pressure;BME280_temperature;BME280_humidity;BME280_pressure;Samples;Min_cycle;Max_cycle;Signal;HPM_P1;HPM_P2
2022/03/12 00:00:11;;;;;;;8.30;7.37;;;;;;;;;;2075664;28;20166;-60
2022/03/12 00:01:15;;;;;;;8.30;7.50;;;;;;;;;;2075747;28;20200;-62
2022/03/12 00:02:15;;;;;;;9.47;7.03;;;;;;;;;;2074275;28;20548;-61
2022/03/12 00:03:16;;;;;;;7.63;6.93;;;;;;;;;;2075605;28;20192;-60
2022/03/12 00:04:17;;;;;;;7.63;6.97;;;;;;;;;;2073511;28;20272;-62
2022/03/12 00:05:18;;;;;;;9.57;7.03;;;;;;;;;;2075465;28;20203;-62
2022/03/12 00:06:18;;;;;;;8.97;7.57;;;;;;;;;;2072694;28;20178;-61
2022/03/12 00:07:18;;;;;;;8.10;7.20;;;;;;;;;;2073902;28;20229;-62
2022/03/12 00:08:20;;;;;;;8.27;7.27;;;;;;;;;;2069739;28;20177;-61
2022/03/12 00:09:21;;;;;;;8.10;7.27;;;;;;;;;;2074911;28;20276;-63
2022/03/12 00:10:23;;;;;;;8.63;7.27;;;;;;;;;;2077445;28;20177;-61
2022/03/12 00:11:27;;;;;;;8.00;7.20;;;;;;;;;;2078243;28;20219;-61
2022/03/12 00:12:34;;;;;;;9.13;7.57;;;;;;;;;;2077006;28;20201;-62
2022/03/12 00:13:34;;;;;;;7.37;6.67;;;;;;;;;;2078416;28;20296;-61
2022/03/12 00:14:37;;;;;;;8.47;7.67;;;;;;;;;;2076796;28;20568;-62
2022/03/12 00:15:38;;;;;;;7.83;7.03;;;;;;;;;;2070030;28;20194;-63
2022/03/12 00:16:38;;;;;;;7.93;7.23;;;;;;;;;;2077793;28;20173;-60
2022/03/12 00:17:43;;;;;;;7.50;6.80;;;;;;;;;;2069406;28;20185;-60
2022/03/12 00:18:46;;;;;;;8.50;7.60;;;;;;;;;;2072530;28;20177;-60
2022/03/12 00:19:47;;;;;;;8.97;7.90;;;;;;;;;;2072991;28;20212;-64
2022/03/12 00:20:48;;;;;;;8.50;7.63;;;;;;;;;;2073563;28;20275;-62
2022/03/12 00:21:50;;;;;;;8.93;7.20;;;;;;;;;;2078471;28;20618;-62
2022/03/12 00:22:51;;;;;;;7.90;7.10;;;;;;;;;;2077505;28;20567;-63
2022/03/12 00:23:53;;;;;;;7.60;6.90;;;;;;;;;;2077137;28;20173;-61
2022/03/12 00:24:54;;;;;;;7.33;6.63;;;;;;;;;;2077537;28;20220;-60
2022/03/12 00:25:55;;;;;;;9.47;7.57;;;;;;;;;;2072167;28;20177;-64
2022/03/12 00:26:59;;;;;;;7.80;7.00;;;;;;;;;;2077085;28;20187;-61
2022/03/12 00:28:00;;;;;;;8.03;7.33;;;;;;;;;;2067165;28;20172;-60
2022/03/12 00:29:00;;;;;;;7.40;6.77;;;;;;;;;;2073143;28;20693;-62
2022/03/12 00:30:02;;;;;;;7.83;7.10;;;;;;;;;;2067579;28;20662;-62
2022/03/12 00:31:03;;;;;;;7.97;7.27;;;;;;;;;;2063840;28;20636;-62
2022/03/12 00:32:04;;;;;;;7.83;7.03;;;;;;;;;;2068854;28;20181;-63
2022/03/12 00:33:05;;;;;;;7.90;7.10;;;;;;;;;;2075628;28;20239;-58
2022/03/12 00:34:07;;;;;;;8.07;7.27;;;;;;;;;;2072296;28;20183;-57
2022/03/12 00:35:11;;;;;;;7.60;6.90;;;;;;;;;;2074125;28;20201;-61
2022/03/12 00:36:12;;;;;;;8.00;7.13;;;;;;;;;;2069508;28;20212;-60
2022/03/12 00:37:13;;;;;;;8.73;7.17;;;;;;;;;;2071071;28;20184;-58
2022/03/12 00:38:14;;;;;;;10.00;8.63;;;;;;;;;;2072879;28;20264;-61
2022/03/12 00:39:15;;;;;;;8.20;7.50;;;;;;;;;;2069278;28;20181;-59
2022/03/12 00:40:19;;;;;;;8.27;7.47;;;;;;;;;;2072902;28;20177;-61
2022/03/12 00:41:19;;;;;;;8.93;8.00;;;;;;;;;;2062966;28;20197;-58
2022/03/12 00:42:19;;;;;;;7.83;7.10;;;;;;;;;;2070672;28;20203;-59
2022/03/12 00:43:20;;;;;;;8.50;7.10;;;;;;;;;;2069048;28;20192;-61
2022/03/12 00:44:22;;;;;;;8.03;7.17;;;;;;;;;;2073174;28;20263;-60
2022/03/12 00:45:24;;;;;;;9.03;7.60;;;;;;;;;;2074799;28;20767;-62
2022/03/12 00:46:24;;;;;;;8.27;7.43;;;;;;;;;;2074158;28;20617;-60
2022/03/12 00:47:24;;;;;;;9.50;7.17;;;;;;;;;;2074346;28;20204;-59
2022/03/12 00:48:25;;;;;;;8.43;7.07;;;;;;;;;;2074850;28;20176;-57
2022/03/12 00:49:25;;;;;;;7.67;6.97;;;;;;;;;;2074820;28;20259;-63
2022/03/12 00:50:25;;;;;;;8.00;7.30;;;;;;;;;;2074069;28;20623;-64
2022/03/12 00:51:25;;;;;;;7.80;7.13;;;;;;;;;;2075801;28;20259;-62
2022/03/12 00:52:26;;;;;;;8.43;7.00;;;;;;;;;;2075329;28;20184;-63
2022/03/12 00:53:27;;;;;;;8.23;6.60;;;;;;;;;;2074233;28;20195;-62
2022/03/12 00:54:27;;;;;;;7.37;6.67;;;;;;;;;;2070709;28;20184;-62
2022/03/12 00:55:27;;;;;;;7.77;7.07;;;;;;;;;;2072017;28;20653;-61
2022/03/12 00:56:28;;;;;;;6.93;6.33;;;;;;;;;;2073625;28;20550;-59
2022/03/12 00:57:28;;;;;;;8.47;6.93;;;;;;;;;;2073524;28;20177;-62
2022/03/12 00:58:28;;;;;;;7.40;6.40;;;;;;;;;;2073468;28;20176;-62
2022/03/12 00:59:29;;;;;;;7.33;6.63;;;;;;;;;;2073009;28;20175;-62
2022/03/12 01:00:29;;;;;;;7.63;6.90;;;;;;;;;;2072967;28;20303;-61
2022/03/12 01:01:30;;;;;;;7.27;6.47;;;;;;;;;;2070888;28;20215;-62
2022/03/12 01:02:30;;;;;;;7.63;6.93;;;;;;;;;;2072624;28;20177;-62
2022/03/12 01:03:31;;;;;;;7.33;6.63;;;;;;;;;;2062670;28;20632;-61
2022/03/12 01:04:33;;;;;;;8.60;6.67;;;;;;;;;;2070837;28;20610;-63
2022/03/12 01:05:52;;;;;;;8.00;7.20;;;;;;;;;;2069690;28;20170;-61
2022/03/12 01:06:52;;;;;;;8.57;7.03;;;;;;;;;;2066964;28;20146;-65
2022/03/12 01:07:52;;;;;;;8.07;6.77;;;;;;;;;;2072514;28;20311;-61
2022/03/12 01:08:52;;;;;;;7.40;6.70;;;;;;;;;;2073035;28;20187;-61
2022/03/12 01:09:54;;;;;;;7.73;7.03;;;;;;;;;;2068567;28;20173;-60
2022/03/12 01:10:56;;;;;;;7.90;6.93;;;;;;;;;;2073118;28;20197;-62
2022/03/12 01:11:57;;;;;;;8.50;7.07;;;;;;;;;;2068038;28;20223;-59
2022/03/12 01:12:57;;;;;;;11.63;7.47;;;;;;;;;;2063913;28;20220;-60
2022/03/12 01:13:58;;;;;;;7.97;6.77;;;;;;;;;;2062293;28;20777;-56
2022/03/12 01:14:58;;;;;;;7.93;7.23;;;;;;;;;;2071459;28;20209;-56
2022/03/12 01:15:58;;;;;;;12.27;9.77;;;;;;;;;;2067874;28;20169;-63
2022/03/12 01:16:59;;;;;;;7.63;6.80;;;;;;;;;;2069312;28;20666;-61
2022/03/12 01:17:59;;;;;;;12.17;7.17;;;;;;;;;;2073018;28;20204;-61
2022/03/12 01:18:59;;;;;;;9.43;8.10;;;;;;;;;;2072664;28;20163;-61
2022/03/12 01:20:03;;;;;;;7.50;6.80;;;;;;;;;;2067876;28;20566;-58
2022/03/12 01:21:16;;;;;;;13.87;10.03;;;;;;;;;;2068663;28;20169;-61
2022/03/12 01:22:20;;;;;;;12.33;9.93;;;;;;;;;;2072714;28;20676;-61
2022/03/12 01:23:24;;;;;;;11.43;10.27;;;;;;;;;;2076610;28;20710;-58
2022/03/12 01:24:25;;;;;;;11.00;8.67;;;;;;;;;;2057033;28;20190;-59
2022/03/12 01:25:26;;;;;;;8.03;7.27;;;;;;;;;;2056069;28;20174;-61
2022/03/12 01:26:26;;;;;;;7.57;6.87;;;;;;;;;;2071777;28;20203;-61
2022/03/12 01:27:26;;;;;;;9.47;8.53;;;;;;;;;;2071440;28;20183;-59
2022/03/12 01:28:27;;;;;;;7.57;6.83;;;;;;;;;;2065379;28;20583;-58
2022/03/12 01:29:27;;;;;;;8.83;7.40;;;;;;;;;;2072766;28;20195;-58
2022/03/12 01:30:31;;;;;;;8.50;7.70;;;;;;;;;;2073102;28;20522;-60
2022/03/12 01:31:31;;;;;;;9.47;8.53;;;;;;;;;;2072547;28;20809;-62
2022/03/12 01:32:31;;;;;;;7.83;7.13;;;;;;;;;;2069273;28;20251;-59
2022/03/12 01:33:32;;;;;;;9.67;7.17;;;;;;;;;;2073111;28;20235;-58
2022/03/12 01:34:32;;;;;;;7.80;6.43;;;;;;;;;;2068635;28;20650;-59
2022/03/12 01:35:32;;;;;;;8.53;6.83;;;;;;;;;;2072951;28;20177;-59
2022/03/12 01:36:32;;;;;;;7.93;6.43;;;;;;;;;;2072747;28;20212;-60
2022/03/12 01:37:33;;;;;;;10.53;7.40;;;;;;;;;;2073609;28;20200;-61
2022/03/12 01:38:46;;;;;;;7.07;6.00;;;;;;;;;;2068233;28;20177;-60
2022/03/12 01:39:47;;;;;;;7.50;6.80;;;;;;;;;;2067092;28;20170;-58
2022/03/12 01:40:49;;;;;;;6.90;6.33;;;;;;;;;;2073068;28;20172;-58
2022/03/12 01:41:51;;;;;;;7.00;6.27;;;;;;;;;;2067392;28;20243;-58
2022/03/12 01:42:52;;;;;;;8.10;6.70;;;;;;;;;;2070382;28;20231;-60
2022/03/12 01:43:53;;;;;;;6.67;6.07;;;;;;;;;;2056095;28;20623;-60
2022/03/12 01:44:53;;;;;;;7.57;6.87;;;;;;;;;;2066156;28;20753;-60
2022/03/12 01:45:54;;;;;;;7.10;6.50;;;;;;;;;;2072011;28;20208;-58
2022/03/12 01:46:54;;;;;;;9.63;6.13;;;;;;;;;;2066325;28;20165;-60
2022/03/12 01:47:56;;;;;;;7.17;6.43;;;;;;;;;;2070969;28;20169;-59
2022/03/12 01:48:59;;;;;;;7.53;6.77;;;;;;;;;;2067043;28;20178;-58
2022/03/12 01:50:01;;;;;;;6.50;5.90;;;;;;;;;;2071993;28;20275;-60
2022/03/12 01:51:02;;;;;;;7.83;6.93;;;;;;;;;;2073281;28;20252;-60
2022/03/12 01:52:03;;;;;;;7.13;6.30;;;;;;;;;;2072801;28;20184;-60
2022/03/12 01:53:08;;;;;;;12.27;6.90;;;;;;;;;;2069328;28;20278;-58
2022/03/12 01:54:08;;;;;;;6.57;6.00;;;;;;;;;;2068405;28;20231;-59
2022/03/12 01:55:08;;;;;;;7.57;6.87;;;;;;;;;;2068263;28;20327;-52
2022/03/12 01:56:09;;;;;;;7.90;7.10;;;;;;;;;;2068964;28;20189;-55
2022/03/12 01:57:10;;;;;;;7.20;6.50;;;;;;;;;;2072470;28;20189;-62
2022/03/12 01:58:10;;;;;;;7.47;6.30;;;;;;;;;;2072679;28;20177;-59
2022/03/12 01:59:11;;;;;;;7.77;6.90;;;;;;;;;;2071232;28;20769;-61
2022/03/12 02:00:21;;;;;;;6.73;5.87;;;;;;;;;;2070306;28;20177;-57
2022/03/12 02:01:21;;;;;;;7.83;6.40;;;;;;;;;;2071455;28;20199;-59
2022/03/12 02:02:21;;;;;;;6.57;5.93;;;;;;;;;;2069705;28;20564;-62
2022/03/12 02:03:26;;;;;;;7.70;6.70;;;;;;;;;;2070761;28;20208;-58
2022/03/12 02:04:29;;;;;;;6.30;5.70;;;;;;;;;;2068856;28;20201;-60
2022/03/12 02:05:29;;;;;;;6.17;5.67;;;;;;;;;;2072310;28;20173;-59
2022/03/12 02:06:29;;;;;;;7.33;6.63;;;;;;;;;;2067397;28;20691;-59
2022/03/12 02:07:30;;;;;;;7.83;6.50;;;;;;;;;;2071774;28;20172;-56
2022/03/12 02:08:30;;;;;;;8.43;6.20;;;;;;;;;;2072402;28;20172;-60
2022/03/12 02:09:30;;;;;;;7.10;6.40;;;;;;;;;;2072546;28;20672;-58
2022/03/12 02:10:31;;;;;;;6.57;6.07;;;;;;;;;;2058793;28;20268;-58
2022/03/12 02:11:32;;;;;;;6.57;5.97;;;;;;;;;;2071069;28;20284;-57
2022/03/12 02:12:32;;;;;;;6.47;5.77;;;;;;;;;;2064182;28;20190;-61
2022/03/12 02:13:34;;;;;;;6.87;6.27;;;;;;;;;;2073773;28;20420;-57
2022/03/12 02:14:36;;;;;;;7.17;6.33;;;;;;;;;;2073379;28;20255;-61
2022/03/12 02:15:36;;;;;;;8.93;6.20;;;;;;;;;;2066404;28;20710;-56
2022/03/12 02:16:37;;;;;;;8.77;6.20;;;;;;;;;;2072513;28;20181;-59
2022/03/12 02:17:38;;;;;;;7.30;6.60;;;;;;;;;;2074592;28;20784;-63
2022/03/12 02:18:39;;;;;;;7.73;7.03;;;;;;;;;;2065184;28;20177;-56
2022/03/12 02:19:40;;;;;;;7.67;5.70;;;;;;;;;;2065940;28;20609;-59
2022/03/12 02:20:40;;;;;;;7.03;6.33;;;;;;;;;;2072448;28;20179;-59
2022/03/12 02:21:49;;;;;;;6.93;6.23;;;;;;;;;;2073365;28;20704;-60
2022/03/12 02:22:55;;;;;;;6.87;6.13;;;;;;;;;;2067303;28;20166;-60
2022/03/12 02:23:56;;;;;;;9.03;6.30;;;;;;;;;;2074625;28;20242;-58
2022/03/12 02:24:56;;;;;;;7.57;6.43;;;;;;;;;;2070756;28;20294;-59
2022/03/12 02:26:00;;;;;;;6.77;6.00;;;;;;;;;;2071293;28;20208;-61
2022/03/12 02:27:01;;;;;;;6.37;5.80;;;;;;;;;;2074247;28;20175;-56
2022/03/12 02:28:09;;;;;;;7.10;6.40;;;;;;;;;;2074728;28;20169;-61
2022/03/12 02:29:12;;;;;;;7.23;6.53;;;;;;;;;;2071428;28;20208;-61
2022/03/12 02:30:12;;;;;;;7.43;5.73;;;;;;;;;;2073322;28;20598;-57
2022/03/12 02:31:14;;;;;;;6.63;6.03;;;;;;;;;;2071784;28;20215;-57
2022/03/12 02:32:14;;;;;;;6.40;5.80;;;;;;;;;;2074111;28;20219;-61
2022/03/12 02:33:15;;;;;;;7.23;5.67;;;;;;;;;;2074660;28;20169;-59
2022/03/12 02:34:23;;;;;;;6.93;6.20;;;;;;;;;;2073569;28;20351;-59
2022/03/12 02:35:24;;;;;;;6.57;5.97;;;;;;;;;;2073937;28;20296;-61
2022/03/12 02:36:26;;;;;;;7.20;5.90;;;;;;;;;;2073909;28;20637;-62
2022/03/12 02:37:30;;;;;;;6.90;5.90;;;;;;;;;;2073883;28;20181;-60
2022/03/12 02:38:30;;;;;;;6.50;5.83;;;;;;;;;;2068986;28;20177;-60
2022/03/12 02:39:31;;;;;;;6.33;5.73;;;;;;;;;;2073729;28;20185;-57
2022/03/12 02:40:32;;;;;;;6.30;5.80;;;;;;;;;;2068263;28;20638;-61
2022/03/12 02:41:34;;;;;;;7.87;5.93;;;;;;;;;;2057697;28;20201;-60
2022/03/12 02:42:34;;;;;;;7.43;6.07;;;;;;;;;;2059839;28;20198;-61
2022/03/12 02:43:35;;;;;;;8.03;6.40;;;;;;;;;;2074159;28;20172;-62
2022/03/12 02:44:35;;;;;;;8.63;6.30;;;;;;;;;;2065656;28;20177;-63
2022/03/12 02:45:36;;;;;;;7.93;6.00;;;;;;;;;;2074770;28;20649;-63
2022/03/12 02:46:39;;;;;;;6.80;6.27;;;;;;;;;;2065830;28;20188;-62
2022/03/12 02:47:41;;;;;;;6.67;6.13;;;;;;;;;;2073754;28;20227;-58
2022/03/12 02:48:48;;;;;;;6.70;6.10;;;;;;;;;;2067053;28;20205;-62
2022/03/12 02:49:54;;;;;;;6.73;6.23;;;;;;;;;;2073070;28;20588;-60
2022/03/12 02:50:54;;;;;;;5.70;5.20;;;;;;;;;;2069154;28;20173;-62
2022/03/12 02:51:55;;;;;;;6.47;5.80;;;;;;;;;;2073945;28;20283;-62
2022/03/12 02:52:55;;;;;;;6.70;5.90;;;;;;;;;;2074372;28;20246;-61
2022/03/12 02:53:56;;;;;;;6.30;5.67;;;;;;;;;;2074472;28;20196;-61
2022/03/12 02:54:57;;;;;;;6.37;5.87;;;;;;;;;;2073913;28;20200;-60
2022/03/12 02:55:58;;;;;;;6.47;5.87;;;;;;;;;;2074036;28;20175;-59
2022/03/12 02:57:01;;;;;;;6.67;6.03;;;;;;;;;;2061661;28;20194;-61
2022/03/12 02:58:09;;;;;;;5.83;5.23;;;;;;;;;;2064345;28;20203;-61
2022/03/12 02:59:13;;;;;;;6.93;5.80;;;;;;;;;;2071916;28;20264;-62
2022/03/12 03:00:15;;;;;;;6.10;5.60;;;;;;;;;;2071682;28;20238;-59
2022/03/12 03:01:15;;;;;;;6.97;6.13;;;;;;;;;;2073672;28;20179;-62
2022/03/12 03:02:16;;;;;;;12.70;6.07;;;;;;;;;;2073868;28;20247;-61
2022/03/12 03:03:16;;;;;;;6.50;5.90;;;;;;;;;;2073258;28;20180;-59
2022/03/12 03:04:21;;;;;;;6.23;5.73;;;;;;;;;;2073893;28;20177;-59
2022/03/12 03:06:35;;;;;;;6.60;5.77;;;;;;;;;;2066425;28;20173;-61
2022/03/12 03:07:36;;;;;;;6.30;5.70;;;;;;;;;;2074476;28;20180;-60
2022/03/12 03:08:39;;;;;;;6.30;5.70;;;;;;;;;;2071131;28;20188;-58
2022/03/12 03:09:39;;;;;;;9.33;6.10;;;;;;;;;;2073160;28;20193;-62
2022/03/12 03:10:40;;;;;;;6.70;6.00;;;;;;;;;;2073310;28;20197;-59
2022/03/12 03:11:40;;;;;;;5.73;5.23;;;;;;;;;;2064431;28;20244;-60
2022/03/12 03:12:41;;;;;;;7.63;5.53;;;;;;;;;;2074559;28;20724;-60
2022/03/12 03:13:44;;;;;;;6.30;5.70;;;;;;;;;;2074307;28;20172;-60
2022/03/12 03:14:48;;;;;;;6.63;5.80;;;;;;;;;;2071109;28;20587;-58
2022/03/12 03:15:51;;;;;;;5.90;5.40;;;;;;;;;;2074346;28;20157;-59
2022/03/12 03:16:51;;;;;;;7.43;5.77;;;;;;;;;;2074201;28;20319;-60
2022/03/12 03:17:52;;;;;;;6.70;6.17;;;;;;;;;;2069091;28;20182;-60
2022/03/12 03:18:53;;;;;;;6.37;5.80;;;;;;;;;;2070880;28;20169;-60
2022/03/12 03:19:54;;;;;;;11.97;6.57;;;;;;;;;;2067557;28;20181;-60
2022/03/12 03:20:55;;;;;;;6.93;5.67;;;;;;;;;;2070509;28;20161;-60
2022/03/12 03:21:57;;;;;;;7.10;6.23;;;;;;;;;;2070510;28;20207;-61
2022/03/12 03:22:57;;;;;;;6.87;5.77;;;;;;;;;;2075337;28;20177;-61
2022/03/12 03:24:00;;;;;;;6.30;5.73;;;;;;;;;;2070634;28;20191;-60
2022/03/12 03:25:00;;;;;;;6.90;6.30;;;;;;;;;;2073668;28;20251;-55
2022/03/12 03:26:01;;;;;;;6.53;5.27;;;;;;;;;;2064029;28;20223;-62
2022/03/12 03:27:02;;;;;;;5.97;5.47;;;;;;;;;;2069281;28;20173;-61
2022/03/12 03:28:03;;;;;;;6.07;5.47;;;;;;;;;;2069627;28;20614;-60
2022/03/12 03:29:03;;;;;;;6.40;5.80;;;;;;;;;;2069385;28;20502;-58
2022/03/12 03:30:04;;;;;;;7.20;6.00;;;;;;;;;;2056970;28;20654;-60
2022/03/12 03:31:07;;;;;;;6.47;5.83;;;;;;;;;;2057597;28;20177;-59
2022/03/12 03:32:07;;;;;;;6.67;5.27;;;;;;;;;;2065655;28;20189;-59
2022/03/12 03:33:09;;;;;;;6.83;6.27;;;;;;;;;;2073239;28;20185;-56
2022/03/12 03:34:09;;;;;;;6.33;5.70;;;;;;;;;;2073266;28;20169;-56
2022/03/12 03:35:09;;;;;;;5.90;5.37;;;;;;;;;;2071547;28;20212;-57
2022/03/12 03:36:09;;;;;;;7.00;5.77;;;;;;;;;;2073612;28;20173;-66
2022/03/12 03:37:10;;;;;;;6.63;6.03;;;;;;;;;;2073393;28;20280;-61
2022/03/12 03:38:11;;;;;;;6.97;6.07;;;;;;;;;;2073878;28;20173;-58
2022/03/12 03:39:11;;;;;;;7.03;5.33;;;;;;;;;;2074360;28;20212;-60
2022/03/12 03:40:14;;;;;;;5.83;5.23;;;;;;;;;;2070774;28;20177;-59
2022/03/12 03:41:15;;;;;;;7.67;5.77;;;;;;;;;;2073472;28;20659;-60
2022/03/12 03:42:19;;;;;;;6.47;5.63;;;;;;;;;;2073554;28;20775;-60
2022/03/12 03:43:21;;;;;;;7.53;5.63;;;;;;;;;;2073099;28;20273;-60
2022/03/12 03:44:26;;;;;;;6.50;5.90;;;;;;;;;;2070852;28;20211;-61
2022/03/12 03:45:27;;;;;;;6.03;5.43;;;;;;;;;;2066274;28;20173;-60
2022/03/12 03:46:28;;;;;;;7.27;5.63;;;;;;;;;;2072629;28;20187;-58
2022/03/12 03:47:28;;;;;;;7.47;5.80;;;;;;;;;;2072535;28;20670;-61
2022/03/12 03:48:29;;;;;;;7.80;6.30;;;;;;;;;;2053011;28;20254;-63
2022/03/12 03:49:29;;;;;;;6.43;5.83;;;;;;;;;;2068801;28;20181;-60
2022/03/12 03:50:29;;;;;;;5.83;5.33;;;;;;;;;;2066489;28;20269;-58
2022/03/12 03:51:30;;;;;;;6.80;5.63;;;;;;;;;;2071902;28;20177;-61
2022/03/12 03:52:30;;;;;;;5.70;5.27;;;;;;;;;;2073370;28;20259;-61
2022/03/12 03:53:30;;;;;;;5.93;5.43;;;;;;;;;;2073545;28;20196;-59
2022/03/12 03:54:31;;;;;;;8.07;5.90;;;;;;;;;;2059009;28;20270;-61
2022/03/12 03:55:32;;;;;;;6.03;5.53;;;;;;;;;;2069237;28;20177;-60
2022/03/12 03:56:34;;;;;;;6.03;5.43;;;;;;;;;;2065352;28;20192;-59
2022/03/12 03:57:34;;;;;;;5.20;4.70;;;;;;;;;;2072610;28;20201;-61
2022/03/12 03:58:35;;;;;;;8.00;6.33;;;;;;;;;;2065194;28;20185;-61
2022/03/12 03:59:37;;;;;;;8.27;5.50;;;;;;;;;;2073606;28;20239;-62
2022/03/12 04:00:38;;;;;;;6.13;5.63;;;;;;;;;;2066561;28;20550;-59
2022/03/12 04:01:41;;;;;;;6.20;5.50;;;;;;;;;;2074251;28;20199;-61
2022/03/12 04:02:41;;;;;;;5.73;5.33;;;;;;;;;;2072615;28;20250;-58
2022/03/12 04:03:48;;;;;;;7.47;5.70;;;;;;;;;;2066334;28;20243;-60
2022/03/12 04:04:49;;;;;;;7.03;6.23;;;;;;;;;;2066798;28;20202;-61
2022/03/12 04:05:50;;;;;;;5.80;5.30;;;;;;;;;;2071676;28;20271;-60
2022/03/12 04:06:50;;;;;;;5.77;5.27;;;;;;;;;;2073717;28;20197;-56
2022/03/12 04:07:50;;;;;;;6.33;5.73;;;;;;;;;;2067345;28;20196;-55
2022/03/12 04:08:51;;;;;;;5.93;5.43;;;;;;;;;;2070968;28;20165;-59
2022/03/12 04:09:51;;;;;;;6.67;5.73;;;;;;;;;;2068236;28;20251;-62
2022/03/12 04:10:51;;;;;;;6.00;5.50;;;;;;;;;;2072973;28;20166;-59
2022/03/12 04:11:52;;;;;;;6.00;5.50;;;;;;;;;;2074145;28;20181;-61
2022/03/12 04:12:52;;;;;;;7.90;5.50;;;;;;;;;;2074217;28;20170;-61
2022/03/12 04:13:53;;;;;;;6.77;6.13;;;;;;;;;;2073497;28;20173;-59
2022/03/12 04:16:10;;;;;;;5.87;5.27;;;;;;;;;;2075675;28;20208;-59
2022/03/12 04:17:12;;;;;;;6.60;5.60;;;;;;;;;;2072964;28;20311;-61
2022/03/12 04:18:15;;;;;;;6.43;5.63;;;;;;;;;;2072670;28;20172;-59
2022/03/12 04:19:15;;;;;;;7.37;5.80;;;;;;;;;;2072468;28;20765;-57
2022/03/12 04:20:18;;;;;;;6.10;5.67;;;;;;;;;;2073782;28;20168;-59
2022/03/12 04:21:20;;;;;;;5.93;5.40;;;;;;;;;;2072522;28;20161;-59
2022/03/12 04:22:23;;;;;;;6.23;5.73;;;;;;;;;;2073104;28;20257;-60
2022/03/12 04:23:25;;;;;;;6.43;5.93;;;;;;;;;;2072338;28;20173;-60
2022/03/12 04:24:25;;;;;;;6.33;4.97;;;;;;;;;;2071426;28;20642;-61
2022/03/12 04:25:27;;;;;;;5.97;5.47;;;;;;;;;;2072440;28;20193;-60
2022/03/12 04:26:30;;;;;;;6.10;5.37;;;;;;;;;;2073801;28;20583;-60
2022/03/12 04:27:30;;;;;;;6.20;5.60;;;;;;;;;;2072938;28;20199;-58
2022/03/12 04:28:32;;;;;;;6.40;5.90;;;;;;;;;;2073778;28;20644;-59
2022/03/12 04:29:33;;;;;;;6.07;5.53;;;;;;;;;;2072897;28;20176;-57
2022/03/12 04:30:33;;;;;;;6.00;5.40;;;;;;;;;;2073790;28;20610;-62
2022/03/12 04:31:33;;;;;;;6.13;5.43;;;;;;;;;;2068777;28;20264;-59
2022/03/12 04:32:34;;;;;;;6.03;5.43;;;;;;;;;;2075339;28;20196;-60
2022/03/12 04:33:35;;;;;;;6.00;5.33;;;;;;;;;;2072289;28;20177;-60
2022/03/12 04:34:35;;;;;;;5.70;5.20;;;;;;;;;;2072698;28;20193;-60
2022/03/12 04:35:36;;;;;;;5.60;5.00;;;;;;;;;;2072201;28;20192;-60
2022/03/12 04:36:36;;;;;;;5.97;5.47;;;;;;;;;;2073019;28;20300;-61
2022/03/12 04:37:37;;;;;;;6.10;5.50;;;;;;;;;;2072056;28;20180;-59
2022/03/12 04:38:37;;;;;;;7.07;6.20;;;;;;;;;;2073045;28;20184;-56
2022/03/12 04:39:39;;;;;;;7.37;5.53;;;;;;;;;;2072896;28;20212;-62
2022/03/12 04:40:40;;;;;;;5.90;5.33;;;;;;;;;;2073637;28;20568;-58
2022/03/12 04:41:40;;;;;;;6.80;5.90;;;;;;;;;;2066339;28;20245;-60
2022/03/12 04:42:44;;;;;;;5.17;4.77;;;;;;;;;;2072404;28;20177;-60
2022/03/12 04:43:45;;;;;;;6.03;5.53;;;;;;;;;;2071721;28;20177;-57
2022/03/12 04:44:45;;;;;;;6.13;5.63;;;;;;;;;;2065870;28;20205;-62
2022/03/12 04:45:46;;;;;;;6.07;5.57;;;;;;;;;;2073601;28;20279;-61
2022/03/12 04:46:46;;;;;;;6.20;5.60;;;;;;;;;;2072548;28;20711;-60
2022/03/12 04:47:48;;;;;;;7.10;5.77;;;;;;;;;;2073655;28;20195;-60
2022/03/12 04:48:49;;;;;;;6.77;5.40;;;;;;;;;;2072484;28;20177;-55
2022/03/12 04:49:49;;;;;;;5.97;5.27;;;;;;;;;;2073536;28;20191;-59
2022/03/12 04:50:50;;;;;;;6.67;5.87;;;;;;;;;;2072166;28;20192;-59
2022/03/12 04:51:50;;;;;;;5.83;5.33;;;;;;;;;;2072975;28;20252;-60
2022/03/12 04:52:52;;;;;;;5.97;5.37;;;;;;;;;;2071336;28;20173;-58
2022/03/12 04:54:00;;;;;;;6.83;5.37;;;;;;;;;;2073329;28;20219;-59
2022/03/12 04:55:07;;;;;;;6.53;5.93;;;;;;;;;;2072224;28;20177;-60
2022/03/12 04:56:09;;;;;;;5.50;5.07;;;;;;;;;;2073128;28;20220;-59
2022/03/12 04:57:09;;;;;;;7.10;5.20;;;;;;;;;;2072017;28;20173;-60
2022/03/12 04:58:10;;;;;;;5.80;5.30;;;;;;;;;;2073448;28;20177;-54
2022/03/12 04:59:12;;;;;;;6.20;5.60;;;;;;;;;;2067141;28;20172;-60
2022/03/12 05:00:17;;;;;;;6.07;5.57;;;;;;;;;;2069750;28;20259;-60
2022/03/12 05:01:17;;;;;;;5.40;4.97;;;;;;;;;;2070941;28;20191;-61
2022/03/12 05:02:17;;;;;;;5.23;4.73;;;;;;;;;;2072414;28;20573;-61
2022/03/12 05:03:23;;;;;;;5.80;5.27;;;;;;;;;;2072501;28;20618;-60
2022/03/12 05:04:23;;;;;;;5.90;5.33;;;;;;;;;;2071566;28;20173;-60
2022/03/12 05:05:23;;;;;;;6.53;5.93;;;;;;;;;;2072714;28;20197;-59
2022/03/12 05:06:24;;;;;;;5.93;5.37;;;;;;;;;;2076174;28;20181;-59
2022/03/12 05:07:25;;;;;;;6.10;5.40;;;;;;;;;;2081454;28;20238;-59
2022/03/12 05:08:28;;;;;;;5.53;5.10;;;;;;;;;;2070154;28;20208;-60
2022/03/12 05:09:28;;;;;;;6.83;5.60;;;;;;;;;;2072352;28;20213;-60
2022/03/12 05:10:29;;;;;;;5.43;5.03;;;;;;;;;;2072569;28;20239;-60
2022/03/12 05:11:31;;;;;;;10.37;6.00;;;;;;;;;;2073262;28;20235;-60
2022/03/12 05:12:31;;;;;;;5.87;5.20;;;;;;;;;;2072492;28;20203;-60
2022/03/12 05:13:32;;;;;;;5.70;5.20;;;;;;;;;;2072868;28;20268;-61
2022/03/12 05:14:35;;;;;;;5.73;5.23;;;;;;;;;;2071558;28;20185;-57
2022/03/12 05:15:37;;;;;;;5.57;5.17;;;;;;;;;;2072768;28;20217;-60
2022/03/12 05:16:38;;;;;;;5.90;5.37;;;;;;;;;;2064595;28;20284;-59
2022/03/12 05:17:47;;;;;;;6.30;5.47;;;;;;;;;;2064140;28;20253;-58
2022/03/12 05:18:47;;;;;;;5.27;4.87;;;;;;;;;;2059165;28;20469;-61
2022/03/12 05:19:47;;;;;;;5.67;5.20;;;;;;;;;;2072515;28;20176;-58
2022/03/12 05:20:48;;;;;;;5.90;5.30;;;;;;;;;;2071107;28;20192;-59
2022/03/12 05:21:48;;;;;;;5.60;5.10;;;;;;;;;;2065970;28;20229;-59
2022/03/12 05:22:49;;;;;;;6.50;5.90;;;;;;;;;;2072111;28;20165;-58
2022/03/12 05:23:49;;;;;;;6.10;5.60;;;;;;;;;;2071526;28;20203;-62
2022/03/12 05:24:49;;;;;;;6.13;5.10;;;;;;;;;;2066280;28;20196;-59
2022/03/12 05:25:53;;;;;;;5.80;5.27;;;;;;;;;;2072260;28;20639;-58
2022/03/12 05:26:53;;;;;;;6.43;5.43;;;;;;;;;;2072086;28;20165;-58
2022/03/12 05:27:54;;;;;;;5.03;4.63;;;;;;;;;;2072305;28;20259;-57
2022/03/12 05:28:54;;;;;;;6.03;5.53;;;;;;;;;;2072566;28;20192;-59
2022/03/12 05:29:54;;;;;;;4.90;4.53;;;;;;;;;;2076519;28;20180;-60
2022/03/12 05:30:56;;;;;;;6.57;5.83;;;;;;;;;;2077370;28;20172;-57
2022/03/12 05:31:56;;;;;;;6.30;5.70;;;;;;;;;;2072332;28;20177;-61
2022/03/12 05:32:57;;;;;;;6.47;5.17;;;;;;;;;;2072774;28;20188;-60
2022/03/12 05:33:57;;;;;;;7.10;5.83;;;;;;;;;;2069756;28;20178;-60
2022/03/12 05:34:57;;;;;;;6.10;5.50;;;;;;;;;;2072312;28;20264;-59
2022/03/12 05:35:58;;;;;;;6.63;5.40;;;;;;;;;;2072399;28;20181;-60
2022/03/12 05:36:59;;;;;;;7.10;5.90;;;;;;;;;;2071769;28;20177;-57
2022/03/12 05:37:59;;;;;;;6.30;5.40;;;;;;;;;;2071853;28;20200;-57
2022/03/12 05:38:59;;;;;;;5.87;5.37;;;;;;;;;;2072487;28;20172;-59
2022/03/12 05:40:00;;;;;;;5.83;5.23;;;;;;;;;;2072351;28;20264;-60
2022/03/12 05:41:00;;;;;;;5.90;5.43;;;;;;;;;;2072874;28;20175;-57
2022/03/12 05:42:05;;;;;;;7.10;5.53;;;;;;;;;;2071756;28;20616;-59
2022/03/12 05:43:10;;;;;;;9.27;5.70;;;;;;;;;;2064169;28;20673;-57
2022/03/12 05:44:13;;;;;;;7.03;6.07;;;;;;;;;;2071780;28;20219;-60
2022/03/12 05:45:18;;;;;;;7.10;5.80;;;;;;;;;;2070176;28;20178;-61
2022/03/12 05:46:21;;;;;;;6.00;5.47;;;;;;;;;;2070308;28;20215;-57
2022/03/12 05:47:23;;;;;;;6.57;5.23;;;;;;;;;;2068551;28;20714;-58
2022/03/12 05:48:24;;;;;;;6.23;5.63;;;;;;;;;;2070556;28;20223;-59
2022/03/12 05:49:24;;;;;;;5.90;5.40;;;;;;;;;;2071181;28;20228;-60
2022/03/12 05:50:25;;;;;;;6.40;5.83;;;;;;;;;;2073941;28;20177;-59
2022/03/12 05:51:26;;;;;;;6.40;5.80;;;;;;;;;;2067703;28;20184;-59
2022/03/12 05:52:27;;;;;;;6.10;5.57;;;;;;;;;;2071171;28;20180;-57
2022/03/12 05:53:28;;;;;;;7.23;6.33;;;;;;;;;;2073184;28;20188;-59
2022/03/12 05:54:28;;;;;;;6.33;5.73;;;;;;;;;;2073060;28;20244;-60
2022/03/12 05:55:29;;;;;;;6.10;5.60;;;;;;;;;;2072917;28;20204;-62
2022/03/12 05:56:29;;;;;;;6.43;5.40;;;;;;;;;;2072852;28;20263;-58
2022/03/12 05:57:31;;;;;;;8.70;6.27;;;;;;;;;;2073347;28;20653;-59
2022/03/12 05:58:38;;;;;;;7.40;6.60;;;;;;;;;;2073581;28;20200;-60
2022/03/12 05:59:38;;;;;;;9.90;6.03;;;;;;;;;;2073180;28;20185;-59
2022/03/12 06:00:41;;;;;;;6.17;5.57;;;;;;;;;;2072727;28;20173;-59
2022/03/12 06:01:42;;;;;;;7.17;5.40;;;;;;;;;;2072615;28;20254;-59
2022/03/12 06:02:47;;;;;;;6.77;5.93;;;;;;;;;;2072756;28;20175;-60
2022/03/12 06:03:47;;;;;;;6.97;6.37;;;;;;;;;;2072716;28;20244;-58
2022/03/12 06:04:48;;;;;;;6.87;6.27;;;;;;;;;;2072926;28;20183;-61
2022/03/12 06:05:56;;;;;;;5.50;5.10;;;;;;;;;;2072843;28;20181;-60
2022/03/12 06:06:56;;;;;;;6.40;5.47;;;;;;;;;;2073100;28;20161;-58
2022/03/12 06:07:57;;;;;;;6.07;5.57;;;;;;;;;;2073548;28;20188;-60
2022/03/12 06:08:57;;;;;;;8.83;5.93;;;;;;;;;;2074819;28;20196;-59
2022/03/12 06:09:57;;;;;;;6.33;5.73;;;;;;;;;;2074838;28;20232;-56
2022/03/12 06:10:58;;;;;;;7.47;5.70;;;;;;;;;;2074314;28;20165;-59